Date,TemperatureHighF,TemperatureAvgF,TemperatureLowF,DewpointHighF,DewpointAvgF,DewpointLowF,HumidityHigh,HumidityAvg,HumidityLow,PressureMaxIn,PressureMinIn,WindSpeedMaxMPH,WindSpeedAvgMPH,GustSpeedMaxMPH,PrecipitationSumIn
2013-1-1,21,6,-12,3,-9,-24,59,49,39,30.25,30.10,6,2,9,0.00
2013-1-2,28,18,9,11,5,0,70,57,41,30.10,29.95,8,2,12,0.00
2013-1-3,29,19,8,16,10,-2,82,67,52,30.19,30.01,8,4,12,0.00
2013-1-4,35,21,8,15,8,-2,79,58,41,30.16,30.04,9,2,17,0.00
2013-1-5,39,24,4,26,14,-3,81,66,46,30.19,29.80,10,2,15,0.00
2013-1-6,31,20,6,16,9,-5,80,62,43,30.22,29.86,11,3,15,0.00
2013-1-7,41,28,7,24,15,-5,82,58,41,30.22,29.92,9,3,18,0.00
2013-1-8,40,29,9,28,19,5,83,68,50,30.04,29.83,12,3,22,0.06
2013-1-9,43,32,16,27,19,10,78,60,38,30.42,29.83,12,4,17,0.10
2013-1-10,41,28,13,34,19,7,98,72,39,30.45,29.77,9,2,13,0.31
2013-1-11,46,39,34,45,39,34,98,98,93,29.77,29.45,9,2,15,0.10
2013-1-12,48,29,16,43,17,2,93,60,44,29.98,29.45,13,5,28,0.00
2013-1-13,17,12,8,2,-3,-8,55,51,46,30.19,29.92,11,5,17,0.00
2013-1-14,25,13,4,6,-2,-11,60,50,43,30.39,30.16,9,2,18,0.00
2013-1-15,33,18,3,13,3,-8,73,52,40,30.36,29.95,6,2,8,0.00
2013-1-16,34,27,20,29,16,5,82,62,45,30.10,29.68,9,4,16,0.00
2013-1-17,27,18,9,6,0,-6,68,47,33,30.36,30.07,10,4,15,0.00
2013-1-18,47,31,10,28,18,0,73,60,43,30.36,29.74,13,4,22,0.00
2013-1-19,49,34,8,31,20,-9,80,57,36,30.04,29.59,22,6,32,0.00
2013-1-20,16,8,3,-4,-10,-14,45,42,37,30.30,30.04,16,6,30,0.00
2013-1-21,6,-1,-6,-15,-21,-25,38,38,38,30.25,30.13,12,6,23,0.00
2013-1-22,8,0,-9,-12,-20,-28,38,38,38,30.33,30.22,7,3,11,0.00
2013-1-23,21,10,-2,6,-6,-15,61,48,38,30.48,30.04,15,4,25,0.00
2013-1-24,12,4,-5,0,-8,-17,56,56,56,30.66,30.25,8,4,10,0.00
2013-1-25,27,17,9,12,4,-5,78,57,43,30.27,29.89,11,4,17,0.00
2013-1-26,32,17,0,8,0,-14,57,46,35,30.36,30.19,10,3,17,0.00
2013-1-27,32,28,23,32,19,6,98,72,48,30.25,29.77,11,5,19,0.00
2013-1-28,39,34,32,34,32,29,98,90,71,29.89,29.65,7,2,10,0.27
2013-1-29,47,38,33,46,37,31,98,96,89,29.68,29.45,10,4,14,0.69
2013-1-30,33,24,12,32,18,2,97,78,62,29.62,29.36,16,8,23,0.00
2013-1-31,15,8,-2,3,-6,-18,66,54,44,30.13,29.59,15,7,21,0.00
2013-2-1,12,1,-10,-5,-15,-26,45,45,45,30.27,30.04,9,3,20,0.00
2013-2-2,20,7,-3,-1,-10,-19,47,44,39,30.13,29.92,6,2,9,0.00
2013-2-3,25,14,3,4,-4,-14,57,46,41,30.01,29.89,14,3,21,0.00
2013-2-4,26,14,0,7,-4,-19,61,44,35,29.98,29.86,7,2,9,0.00
2013-2-5,33,19,-1,21,8,-20,82,63,40,30.07,29.68,10,3,16,0.00
2013-2-6,32,16,-8,26,6,-17,92,66,49,30.16,29.98,9,2,15,0.00
2013-2-7,34,29,26,30,25,18,90,86,71,30.13,29.92,12,3,18,0.00
2013-2-8,36,21,-1,19,7,-14,76,55,38,30.36,30.10,9,3,14,0.00
2013-2-9,30,18,-3,23,10,-16,94,70,53,30.33,29.98,14,5,22,0.00
2013-2-10,41,33,27,40,31,23,98,93,81,30.01,29.24,12,4,20,1.48
2013-2-11,35,29,22,34,22,13,98,76,60,29.98,29.24,14,7,24,0.06
2013-2-12,37,26,18,20,13,8,85,61,42,30.04,29.77,10,3,15,0.00
2013-2-13,48,31,12,31,20,8,94,67,38,29.80,29.57,6,1,8,0.00
2013-2-14,38,32,19,34,21,3,98,67,43,30.04,29.51,14,6,22,0.04
2013-2-15,30,16,5,6,-2,-10,54,45,35,30.19,30.04,11,4,15,0.00
2013-2-16,26,10,-7,2,-9,-26,52,41,36,30.19,30.10,10,3,14,0.00
2013-2-17,29,12,-11,14,-6,-30,61,44,37,30.16,29.80,10,4,19,0.00
2013-2-18,48,32,18,32,21,12,88,63,43,29.80,29.45,14,5,22,0.02
2013-2-19,18,11,4,12,-2,-13,79,58,44,30.19,29.57,18,9,27,0.00
2013-2-20,29,14,2,5,-4,-15,52,44,36,30.39,30.19,10,4,14,0.00
2013-2-21,23,17,6,21,6,-8,95,63,49,30.42,30.04,14,5,21,0.00
2013-2-22,39,27,22,22,19,16,93,72,48,30.04,29.74,12,4,17,0.00
2013-2-23,39,27,18,18,16,12,81,64,40,29.92,29.77,7,3,13,0.06
2013-2-24,50,27,10,24,14,6,87,60,34,30.10,29.89,4,1,8,0.07
2013-2-25,45,29,17,23,17,9,78,61,40,30.13,30.01,8,1,13,0.04
2013-2-26,37,30,20,23,21,14,90,69,51,30.01,29.71,15,7,22,0.00
2013-2-27,36,32,28,30,25,20,92,78,59,29.83,29.68,14,7,18,0.00
2013-2-28,34,31,26,26,19,11,81,62,48,30.13,29.83,14,6,18,0.00
2013-3-1,35,25,13,15,9,0,73,53,40,30.27,30.10,10,4,14,0.00
2013-3-2,35,19,3,11,-1,-15,69,41,28,30.27,30.13,10,3,13,0.00
2013-3-3,42,19,-2,12,-6,-23,57,34,19,30.16,30.01,4,0,6,0.00
2013-3-4,32,23,11,18,8,-9,70,52,40,30.07,29.98,12,4,15,0.03
2013-3-5,32,27,24,24,21,18,90,78,63,30.13,29.92,10,5,15,0.00
2013-3-6,36,25,7,19,13,-3,77,61,43,30.30,30.13,10,4,15,0.00
2013-3-7,47,22,-2,19,5,-11,74,51,31,30.39,30.30,5,1,7,0.12
2013-3-8,44,28,6,22,13,-2,71,56,39,30.42,30.19,14,3,21,0.11
2013-3-9,41,36,30,38,30,21,98,80,62,30.19,29.68,12,5,20,0.58
2013-3-10,38,36,33,37,35,32,98,97,94,29.80,29.65,12,4,17,0.74
2013-3-11,35,31,27,32,27,21,98,85,73,29.74,29.57,9,1,11,0.03
2013-3-12,42,28,22,23,17,9,88,64,40,30.04,29.71,10,4,15,0.02
2013-3-13,36,24,13,14,6,-1,79,50,30,30.30,30.04,12,5,18,0.00
2013-3-14,45,25,10,25,14,-2,84,63,44,30.27,30.01,12,2,16,0.00
2013-3-15,40,32,27,32,28,22,98,84,69,30.01,29.77,9,2,13,0.02
2013-3-16,36,26,18,27,14,5,91,64,42,30.16,29.80,10,1,14,0.00
2013-3-17,34,23,11,12,6,-3,66,48,34,30.25,29.95,10,5,14,0.00
2013-3-18,38,23,14,27,14,4,83,70,53,29.95,29.51,14,4,22,0.00
2013-3-19,32,19,10,6,2,-4,65,48,33,30.04,29.68,16,8,25,0.00
2013-3-20,27,14,1,1,-5,-16,46,41,34,30.10,30.01,15,6,20,0.00
2013-3-21,36,16,-1,9,-4,-18,59,40,31,30.07,29.98,10,3,13,0.00
2013-3-22,48,25,2,15,3,-13,66,39,25,30.07,29.98,4,1,5,0.02
2013-3-23,54,32,13,21,11,3,72,44,26,30.13,29.98,6,1,7,0.06
2013-3-24,37,31,28,24,18,13,75,59,51,30.04,29.80,11,5,15,0.04
2013-3-25,38,31,21,21,15,11,75,52,43,30.13,29.86,12,7,16,0.02
2013-3-26,47,35,26,21,15,12,58,45,33,30.25,30.10,9,4,15,0.00
2013-3-27,54,37,23,22,16,10,59,44,27,30.30,30.22,7,2,9,0.00
2013-3-28,58,36,16,24,14,8,73,45,19,30.33,30.22,6,1,7,0.00
2013-3-29,58,38,17,26,17,10,77,47,22,30.33,30.16,6,1,8,0.00
2013-3-30,54,42,31,43,30,19,98,65,39,30.16,29.77,9,3,15,0.19
2013-3-31,48,37,29,39,27,10,98,69,40,29.92,29.68,18,5,25,0.02
2013-4-1,36,29,22,12,8,4,53,40,31,30.19,29.92,14,6,21,0.00
2013-4-2,42,30,19,15,9,4,64,42,29,30.30,30.16,12,4,21,0.00
2013-4-3,50,34,15,19,11,4,69,40,19,30.45,30.16,9,2,17,0.00
2013-4-4,57,44,34,30,21,13,52,40,31,30.22,29.92,10,4,17,0.00
2013-4-5,52,41,28,27,18,14,72,42,27,30.25,30.04,10,4,15,0.00
2013-4-6,59,45,34,49,29,13,94,55,37,30.04,29.48,16,6,26,0.23
2013-4-7,54,42,35,35,29,25,83,63,41,29.92,29.59,12,4,20,0.00
2013-4-8,56,43,37,38,34,30,93,70,47,29.98,29.68,7,3,9,0.00
2013-4-9,40,38,33,39,36,29,98,94,77,30.10,29.86,17,6,22,2.74
2013-4-10,35,33,32,33,31,25,98,91,69,30.10,29.89,12,2,18,0.82
2013-4-11,36,34,32,35,32,25,98,92,69,29.89,29.57,22,7,30,0.27
2013-4-12,42,34,31,33,29,26,98,83,62,29.77,29.51,8,2,15,0.27
2013-4-13,41,34,28,29,23,17,89,65,43,29.95,29.74,9,4,16,0.08
2013-4-14,42,34,27,37,30,20,96,85,71,29.98,29.57,14,5,20,0.83
2013-4-15,55,45,36,48,31,23,98,63,36,29.95,29.57,12,4,24,0.29
2013-4-16,54,41,30,28,24,21,78,55,33,30.27,29.92,9,3,13,0.00
2013-4-17,40,37,31,37,31,22,98,79,60,30.30,29.80,17,5,26,1.00
2013-4-18,42,40,36,42,39,33,98,97,88,29.80,29.27,11,4,20,0.54
2013-4-19,39,34,29,33,23,15,98,67,42,29.89,29.27,19,7,29,0.05
2013-4-20,49,36,20,25,13,5,79,43,19,30.30,29.89,11,3,15,0.00
2013-4-21,52,40,26,35,27,15,95,60,40,30.42,30.10,19,6,28,0.23
2013-4-22,53,48,45,48,42,35,97,81,57,30.16,29.92,9,2,20,0.27
2013-4-23,51,39,32,49,30,21,98,71,50,30.01,29.83,13,5,18,0.06
2013-4-24,57,42,26,36,23,18,87,50,27,30.04,29.89,10,3,16,0.08
2013-4-25,54,42,30,36,27,18,87,59,32,30.22,29.92,10,3,18,0.00
2013-4-26,73,56,30,41,32,21,76,42,25,30.19,30.04,13,4,17,0.00
2013-4-27,74,59,43,47,42,36,92,56,32,30.16,29.95,14,3,21,0.00
2013-4-28,78,59,37,50,38,33,96,53,22,29.95,29.68,12,2,17,0.00
2013-4-29,75,63,53,58,48,40,87,59,41,29.80,29.57,17,3,23,0.08
2013-4-30,84,70,55,58,49,37,92,51,29,29.59,28.44,24,6,24,0.11
2013-5-1,69,57,41,45,39,32,78,54,33,29.09,28.67,23,10,23,0.00
2013-5-2,41,37,32,36,32,29,96,82,68,29.20,29.09,21,11,21,0.50
2013-5-3,41,36,32,41,35,31,98,96,93,29.12,28.85,16,5,16,2.72
2013-5-4,73,57,41,50,46,40,98,70,41,28.88,28.76,12,4,12,0.00
2013-5-5,77,60,44,50,42,34,98,59,22,28.88,28.79,10,3,10,0.00
2013-5-6,83,62,41,51,38,25,92,50,14,28.91,28.76,12,2,12,0.00
2013-5-7,86,67,43,48,35,17,86,40,9,28.85,28.70,14,2,14,0.00
2013-5-8,87,61,43,48,41,35,82,54,19,28.82,28.67,7,1,7,0.00
2013-5-9,64,55,39,57,50,37,98,85,50,28.73,28.64,22,4,22,2.26
2013-5-10,53,40,31,37,32,29,98,76,44,28.85,28.70,18,6,18,0.05
2013-5-11,44,37,31,38,21,10,98,56,29,28.91,28.58,28,10,28,0.03
2013-5-12,47,35,22,15,10,5,61,37,20,29.00,28.88,18,8,18,0.00
2013-5-13,49,30,16,23,15,9,79,57,32,29.00,28.61,18,2,18,0.00
2013-5-14,84,65,45,43,34,24,63,35,17,28.61,28.23,28,6,28,0.00
2013-5-15,69,59,40,38,29,23,72,35,21,28.64,28.32,16,6,20,0.00
2013-5-16,80,60,36,40,32,26,84,42,15,28.73,28.58,14,3,14,0.00
2013-5-17,53,45,38,46,33,19,98,69,31,28.88,28.70,14,6,14,0.75
2013-5-18,74,56,39,51,44,36,92,66,41,28.85,28.64,16,4,16,0.00
2013-5-19,76,62,50,53,49,41,94,64,34,28.70,28.38,33,6,33,0.00
2013-5-20,72,61,52,52,47,40,98,65,33,28.53,28.32,30,6,30,0.51
2013-5-21,66,55,46,54,47,40,98,76,44,28.44,28.32,15,3,15,0.22
2013-5-22,52,48,42,50,46,42,98,95,86,28.64,28.41,17,3,17,1.72
2013-5-23,55,44,34,42,30,17,98,62,24,29.12,28.64,18,7,18,0.18
2013-5-24,59,44,24,33,24,19,90,52,24,29.29,29.06,15,2,15,0.00
2013-5-25,51,44,35,38,30,22,95,60,32,29.20,29.06,13,4,13,0.09
2013-5-26,55,45,34,42,32,22,84,62,31,29.12,28.94,16,4,16,0.09
2013-5-27,45,44,41,45,38,28,98,83,53,28.94,28.64,17,6,17,0.32
2013-5-28,57,47,41,50,45,40,98,93,73,28.67,28.47,10,3,10,0.08
2013-5-29,77,60,50,56,51,45,98,76,36,28.64,28.53,21,4,21,0.75
2013-5-30,74,61,53,60,54,46,98,81,39,28.61,28.38,28,9,28,0.18
2013-5-31,73,60,52,53,48,40,91,68,33,28.53,28.38,25,8,25,0.00
2013-6-1,69,54,44,51,42,37,91,65,31,28.53,28.41,18,4,18,0.00
2013-6-2,56,44,33,42,28,24,85,56,33,28.85,28.53,18,7,18,0.00
2013-6-3,67,50,27,40,30,25,95,54,24,28.91,28.76,9,2,9,0.00
2013-6-4,48,44,40,46,42,35,98,91,75,28.97,28.82,10,2,10,0.50
2013-6-5,50,45,41,48,43,40,98,96,85,28.91,28.70,13,4,13,0.71
2013-6-6,48,44,41,46,43,41,98,96,86,28.79,28.70,10,3,10,0.04
2013-6-7,67,51,40,42,39,32,98,68,31,28.82,28.70,8,2,8,0.00
2013-6-8,66,51,42,47,41,36,97,70,40,28.76,28.70,15,3,15,0.02
2013-6-9,49,49,48,42,41,40,76,76,74,28.76,28.76,1,0,0,0.10
2013-6-11,79,70,66,66,65,64,95,84,62,28.61,28.56,10,1,7,0.00
2013-6-12,84,69,61,68,64,59,98,86,50,28.67,28.44,15,4,15,0.74
2013-6-13,75,62,57,65,57,49,98,86,41,28.85,28.56,10,2,10,0.00
2013-6-14,81,68,52,59,52,46,96,59,33,28.94,28.70,17,4,17,0.00
2013-6-15,84,71,60,67,61,58,98,74,47,28.79,28.56,13,3,13,37.74
2013-6-16,89,74,58,68,52,40,98,56,21,28.70,28.64,15,3,15,0.00
2013-6-17,89,72,59,59,53,42,84,57,21,28.76,28.64,15,3,15,0.00
2013-6-18,78,66,52,58,47,42,84,53,31,28.88,28.73,12,5,12,0.00
2013-6-19,85,67,47,54,48,42,93,57,29,28.91,28.79,15,3,15,0.00
2013-6-20,89,74,56,60,54,50,93,55,28,28.91,28.76,21,4,21,0.00
2013-6-21,85,73,66,68,62,58,98,72,44,28.82,28.67,20,3,20,1.04
2013-6-22,86,72,65,70,66,61,98,83,47,28.88,28.64,18,3,23,0.82
2013-6-23,87,79,65,72,64,58,98,62,42,28.76,28.58,14,3,29,0.37
2013-6-24,85,73,66,70,65,60,97,77,51,28.76,28.61,11,1,17,0.00
2013-6-25,90,74,65,71,67,64,98,83,47,28.67,28.53,9,1,13,0.48
2013-6-26,90,78,69,72,69,62,98,76,43,28.56,28.47,11,2,17,0.00
2013-6-27,94,80,68,74,62,49,98,60,29,28.61,28.50,11,2,21,0.00
2013-6-28,79,70,62,65,58,52,91,67,43,28.56,28.41,12,4,17,0.14
2013-6-29,73,67,64,64,58,52,93,71,51,28.70,28.50,11,4,15,0.27
2013-6-30,79,70,56,53,51,45,84,52,38,28.85,28.67,9,3,12,0.00
2013-7-1,86,70,51,59,50,42,96,56,24,28.97,28.85,9,2,13,0.00
2013-7-2,83,68,53,61,52,45,95,61,32,28.94,28.82,9,2,10,0.00
2013-7-3,83,65,47,58,52,45,97,67,31,28.91,28.76,6,1,10,0.00
2013-7-4,89,72,54,62,54,49,98,61,29,28.85,28.76,12,2,17,0.00
2013-7-5,90,75,56,64,57,51,96,59,29,28.82,28.70,16,2,24,0.00
2013-7-6,91,77,66,63,60,56,85,58,33,28.79,28.70,11,2,18,0.00
2013-7-7,92,79,65,70,65,61,92,66,39,28.73,28.64,11,2,18,0.00
2013-7-8,97,81,72,73,69,64,91,68,39,28.76,28.64,6,2,10,0.00
2013-7-9,89,77,67,76,69,66,98,80,51,28.79,28.58,9,2,14,0.16
2013-7-10,82,73,58,68,54,46,86,55,31,28.82,28.61,12,4,18,0.00
2013-7-11,90,66,54,63,55,52,96,72,31,28.91,28.82,6,0,6,0.00
2013-7-12,86,71,55,65,55,48,97,64,30,28.91,28.82,20,4,20,0.00
2013-7-13,84,72,62,63,58,52,91,64,34,28.94,28.82,21,4,21,0.00
2013-7-14,90,75,56,66,60,54,98,65,31,29.03,28.94,17,3,17,0.00
2013-7-15,93,73,62,71,65,61,98,80,39,29.09,28.97,8,1,8,0.00
2013-7-16,99,88,70,76,69,64,97,57,36,29.06,29.00,13,3,13,0.00
2013-7-17,100,85,70,76,68,61,97,62,30,29.09,28.94,13,2,13,0.00
2013-7-18,99,85,70,75,68,63,95,61,34,28.97,28.64,13,3,13,0.00
2013-7-19,95,83,65,71,63,53,82,54,29,28.64,28.53,17,6,17,0.08
2013-7-20,90,74,58,65,58,53,96,63,31,28.73,28.61,8,2,8,0.00
2013-7-21,76,67,60,66,60,54,98,79,53,28.76,28.64,16,4,16,0.94
2013-7-22,89,73,58,72,63,57,98,74,45,28.67,28.41,22,3,22,0.01
2013-7-23,77,68,48,64,52,45,95,61,36,28.85,28.53,16,6,16,0.00
2013-7-24,82,70,48,57,50,43,98,53,30,28.88,28.73,8,2,8,0.00
2013-7-25,84,66,52,67,58,51,97,78,44,28.85,28.70,13,3,13,0.34
2013-7-26,81,68,56,67,58,46,98,72,34,28.76,28.64,20,6,20,0.02
2013-7-27,64,55,49,50,45,39,92,70,44,28.79,28.70,15,7,15,0.03
2013-7-28,70,59,50,53,49,45,98,72,44,28.85,28.64,15,6,15,0.03
2013-7-29,82,66,52,57,52,46,98,65,33,29.00,28.82,10,2,10,0.00
2013-7-30,83,67,53,65,56,51,98,72,38,29.00,28.85,15,3,15,0.00
2013-7-31,85,70,60,67,61,55,97,75,41,28.91,28.76,16,3,16,0.05
2013-8-1,83,68,56,62,54,45,98,66,30,28.88,28.67,15,3,15,0.02
2013-8-2,85,71,57,67,53,44,98,60,28,28.79,28.64,16,4,16,0.18
2013-8-3,82,66,49,60,48,40,96,58,26,29.00,28.79,13,3,13,0.00
2013-8-4,85,64,47,58,50,45,95,65,29,29.12,28.88,7,2,7,0.00
2013-8-5,75,63,51,66,59,49,98,88,60,28.91,28.64,8,2,17,0.14
2013-8-6,88,75,64,69,64,59,98,73,39,28.67,28.53,10,3,10,0.00
2013-8-7,80,69,58,67,57,50,98,69,42,28.85,28.53,22,5,22,0.00
2013-8-8,85,68,48,60,51,46,98,61,30,28.91,28.76,11,2,11,0.00
2013-8-9,84,70,58,62,55,46,90,64,30,28.91,28.76,14,4,14,0.00
2013-8-10,81,66,50,60,50,43,94,64,32,29.00,28.88,10,2,10,0.00
2013-8-11,75,64,53,66,60,50,98,87,66,28.97,28.88,9,2,9,0.49
2013-8-12,85,70,59,69,58,48,98,69,33,28.88,28.73,17,4,17,0.01
2013-8-13,76,63,49,56,47,39,94,60,31,29.03,28.85,10,4,10,0.00
2013-8-14,83,63,46,56,48,42,98,66,29,29.12,28.91,8,2,8,0.01
2013-8-15,84,66,51,60,51,42,95,66,25,28.97,28.88,10,2,10,0.01
2013-8-16,88,69,48,61,50,40,97,60,20,29.03,28.94,8,2,8,0.00
2013-8-17,89,68,50,60,51,46,97,62,24,29.12,28.97,13,2,13,0.00
2013-8-18,89,68,50,62,52,48,95,63,28,29.09,26.99,16,2,16,0.00
2013-8-19,87,69,52,62,56,51,94,68,37,28.97,28.82,13,2,13,0.00
2013-8-20,91,75,60,65,61,58,96,66,36,28.91,28.76,20,4,20,0.00
2013-8-21,93,79,68,71,66,62,96,66,41,28.85,28.73,17,4,17,0.00
2013-8-22,86,72,59,69,61,49,98,74,29,28.97,28.82,13,2,13,0.33
2013-8-23,87,71,55,64,54,48,98,63,29,29.03,28.94,16,3,16,0.00
2013-8-24,86,72,57,68,60,49,93,68,40,29.03,28.91,23,6,23,0.00
2013-8-25,94,82,72,70,66,63,84,61,38,29.00,28.88,18,6,18,0.00
2013-8-26,95,82,72,73,67,61,90,63,44,28.91,28.76,17,4,17,0.00
2013-8-27,98,84,75,73,69,65,90,64,37,28.76,28.61,13,3,13,0.00
2013-8-28,87,78,70,74,69,64,96,78,49,28.85,28.64,10,3,10,0.00
2013-8-29,91,77,62,72,67,61,98,75,45,28.91,28.73,15,3,15,0.00
2013-8-30,93,80,72,76,68,60,96,70,41,28.76,28.61,12,4,12,0.00
2013-8-31,89,74,62,64,60,53,95,67,31,28.73,28.58,9,3,9,0.00
2013-9-1,88,74,66,72,61,49,98,69,30,28.67,28.53,17,5,17,0.00
2013-9-2,74,63,49,58,51,44,93,69,38,28.85,28.64,14,5,14,0.00
2013-9-3,80,61,41,56,47,40,98,67,33,28.91,28.79,10,2,10,0.00
2013-9-4,92,69,46,63,54,44,96,67,29,28.94,28.82,9,2,9,0.00
2013-9-5,82,69,58,63,57,50,98,70,36,29.09,28.91,12,4,12,0.00
2013-9-6,91,73,56,62,55,45,95,56,31,29.00,28.73,13,4,13,0.00
2013-9-7,96,81,68,68,62,58,81,56,34,28.79,28.64,12,3,12,0.00
2013-9-8,72,68,62,67,60,54,94,76,56,28.91,28.73,14,6,14,0.00
2013-9-9,93,78,64,71,66,59,95,69,44,28.76,28.53,17,5,17,0.00
2013-9-10,95,83,69,64,60,56,69,47,29,28.79,28.58,15,4,15,0.00
2013-9-11,88,74,53,66,58,51,93,62,31,28.88,28.76,12,3,12,0.00
2013-9-12,73,64,53,58,48,39,98,59,33,29.00,28.76,17,7,17,0.00
2013-9-13,71,55,40,48,37,29,94,57,23,29.09,28.94,11,3,11,0.00
2013-9-14,78,57,35,52,39,32,91,57,25,28.97,28.76,14,3,14,0.01
2013-9-15,68,59,55,59,53,47,98,84,52,29.09,28.79,14,4,14,0.75
2013-9-16,69,55,41,47,39,33,87,57,28,29.26,29.09,12,4,12,0.00
2013-9-17,70,52,36,58,45,34,97,78,44,29.15,28.85,15,3,15,0.11
2013-9-18,81,68,60,68,60,57,93,77,49,28.85,28.61,20,6,20,0.04
2013-9-19,85,73,66,71,68,60,98,84,59,28.64,28.47,22,5,22,0.91
2013-9-20,69,63,52,67,56,47,98,79,47,28.67,28.53,15,5,15,0.33
2013-9-21,66,54,42,52,44,38,98,73,41,28.76,28.64,14,5,14,0.00
2013-9-22,68,53,36,49,41,36,98,70,38,28.91,28.76,12,2,12,0.00
2013-9-23,71,56,40,50,45,39,98,71,39,28.91,28.76,17,4,17,0.00
2013-9-24,75,56,39,55,44,38,98,69,31,28.88,28.73,14,2,14,0.00
2013-9-25,72,56,41,56,46,40,98,74,39,28.85,28.70,12,2,12,0.00
2013-9-26,76,56,42,58,48,41,98,78,38,28.88,28.76,15,3,15,0.01
2013-9-27,82,64,48,57,48,42,98,62,30,28.91,28.76,24,5,24,0.00
2013-9-28,79,62,51,66,54,48,98,77,44,28.82,28.56,36,7,36,0.43
2013-9-29,74,56,38,58,43,38,98,70,30,28.85,28.73,16,2,16,0.00
2013-9-30,72,59,42,49,42,36,98,60,28,28.73,28.53,29,6,29,0.01
2013-10-1,81,65,47,59,52,42,92,67,27,28.76,28.53,14,4,14,0.00
2013-10-2,78,58,39,52,40,32,98,61,20,28.91,28.67,13,2,13,0.00
2013-10-3,74,64,53,66,59,45,98,85,59,28.70,28.58,12,3,12,0.94
2013-10-4,61,59,58,60,59,57,98,98,98,28.79,28.64,16,5,16,0.23
2013-10-5,71,62,49,70,60,45,98,94,71,28.76,28.50,14,5,14,1.01
2013-10-6,65,50,37,52,40,32,98,72,34,28.56,28.47,13,2,13,0.01
2013-10-7,69,54,39,52,42,36,98,69,33,28.85,28.53,15,4,15,0.05
2013-10-8,77,58,36,52,40,35,98,59,25,28.91,28.79,21,4,21,0.00
2013-10-9,74,60,42,52,43,39,90,57,32,28.97,28.85,17,4,17,0.00
2013-10-10,74,54,37,52,42,36,98,69,31,29.00,28.76,16,3,16,0.00
2013-10-11,75,60,41,57,49,40,98,71,41,28.85,28.61,26,6,26,0.00
2013-10-12,68,60,39,56,43,28,80,56,33,28.97,28.58,21,6,21,0.00
2013-10-13,65,46,34,46,32,25,97,64,26,29.24,28.97,15,3,15,0.00
2013-10-14,62,47,30,44,35,27,95,67,39,29.26,28.91,16,4,16,0.00
2013-10-15,60,52,47,57,47,40,98,87,56,28.91,28.53,19,6,19,0.41
2013-10-16,51,48,38,48,45,36,98,90,77,28.76,28.53,12,4,12,0.04
2013-10-17,61,43,30,47,35,30,98,77,36,28.76,28.58,10,1,10,0.01
2013-10-18,51,44,35,43,37,30,96,79,48,28.73,28.58,17,4,17,0.01
2013-10-19,56,40,26,42,32,25,98,77,38,28.67,28.50,15,3,15,0.00
2013-10-20,48,40,30,43,36,28,98,87,71,28.61,28.44,17,4,17,0.04
2013-10-21,42,36,28,35,23,16,83,59,40,28.73,28.56,20,7,20,0.01
2013-10-22,49,35,23,30,23,18,86,63,38,28.79,28.70,12,4,12,0.00
2013-10-23,43,33,23,30,23,20,91,69,43,28.82,28.76,17,4,17,0.00
2013-10-24,46,36,30,24,21,18,69,54,36,29.09,28.82,17,6,17,0.01
2013-10-25,53,42,26,31,25,20,81,53,33,29.15,28.61,25,5,26,0.00
2013-10-26,50,46,35,35,26,21,72,48,36,28.88,28.53,21,8,21,0.00
2013-10-27,59,40,24,34,24,19,88,57,27,28.85,28.64,13,3,13,0.00
2013-10-28,43,38,34,30,24,21,81,58,44,29.20,28.85,15,6,15,0.00
2013-10-29,52,41,35,38,28,22,89,61,49,29.24,28.91,12,4,12,0.00
2013-10-30,54,50,42,54,47,38,98,91,81,28.91,28.50,15,4,15,0.00
2013-10-31,58,50,41,57,49,38,98,95,85,28.50,28.08,18,4,18,0.22
2013-11-1,48,43,37,42,38,31,98,83,64,28.56,28.11,15,6,15,0.00
2013-11-2,49,40,27,34,30,24,87,70,49,28.94,28.56,15,5,15,0.00
2013-11-3,52,38,22,34,26,20,91,65,37,29.06,28.88,26,6,27,0.00
2013-11-4,50,47,44,47,37,29,98,70,52,28.94,28.76,26,9,26,0.01
2013-11-5,49,44,33,48,42,32,98,94,60,29.06,28.58,10,2,10,1.14
2013-11-6,45,38,29,44,29,15,98,72,32,28.97,28.53,26,8,26,0.27
2013-11-7,42,32,23,31,24,20,89,74,50,29.03,28.94,13,3,13,0.00
2013-11-8,45,34,18,35,24,16,93,69,43,29.06,28.50,30,6,30,0.02
2013-11-9,50,44,37,39,31,20,77,59,44,28.91,28.47,30,11,30,0.01
2013-11-10,50,42,36,26,24,21,61,49,37,29.12,28.88,20,6,20,0.00
2013-11-11,42,30,20,33,17,5,98,61,43,29.41,28.85,20,8,20,0.04
2013-11-12,30,21,14,9,6,4,66,53,41,29.53,29.32,13,6,13,0.00
2013-11-13,46,32,17,22,13,7,69,46,34,29.32,28.79,17,5,17,0.01
2013-11-14,52,42,33,26,20,12,55,43,36,28.79,28.58,13,4,13,0.00
2013-11-15,57,41,25,35,27,19,82,59,36,28.70,28.58,12,2,12,0.00
2013-11-16,60,48,39,57,44,29,98,88,66,28.61,28.11,26,8,26,0.67
2013-11-17,55,47,36,54,43,25,98,86,62,28.50,27.99,29,9,29,0.22
2013-11-18,36,31,19,25,19,14,79,61,47,29.09,28.50,28,11,28,0.00
2013-11-19,42,30,16,25,18,12,87,64,39,29.15,28.94,24,6,24,0.00
2013-11-20,40,37,34,36,26,21,98,67,49,28.94,28.82,29,10,29,0.06
2013-11-21,42,38,31,38,35,28,98,91,76,29.12,28.85,15,4,15,0.01
2013-11-22,36,29,23,28,15,5,89,58,32,29.32,29.09,22,8,22,0.00
2013-11-23,23,15,6,14,-2,-11,67,46,38,29.50,29.24,25,9,25,0.00
2013-11-24,28,18,4,10,-4,-13,69,39,31,29.50,28.97,15,5,15,0.00
2013-11-25,36,30,23,24,17,0,79,60,33,29.00,28.76,18,6,18,0.00
2013-11-26,34,24,12,20,7,-5,74,48,36,29.09,28.79,25,10,25,0.00
2013-11-27,28,19,9,8,2,-7,65,47,38,29.12,28.94,13,5,13,0.00
2013-11-28,31,24,14,10,7,3,61,48,41,29.32,28.88,16,6,16,0.00
2013-11-29,34,21,7,15,7,-4,79,56,41,29.38,29.03,23,5,23,0.00
2013-11-30,48,35,29,25,20,14,74,56,39,29.03,28.76,19,4,19,0.00
2013-12-1,43,32,23,27,21,14,83,64,41,28.97,28.73,9,2,9,0.00
2013-12-2,40,29,16,33,23,11,98,80,55,28.76,28.47,15,4,15,0.05
2013-12-3,35,34,33,34,33,33,98,98,98,28.56,28.44,15,6,15,0.23
2013-12-4,42,35,31,42,34,22,98,96,69,28.56,28.17,20,6,20,0.09
2013-12-5,31,17,6,22,4,-6,75,56,43,29.09,28.41,24,10,24,0.00
2013-12-6,14,7,2,1,-6,-10,56,56,56,29.38,29.06,15,7,15,0.00
2013-12-7,14,4,-3,1,-8,-15,56,56,56,29.50,29.35,13,4,13,0.00
2013-12-8,14,10,4,1,-3,-8,56,56,56,29.38,28.76,10,4,10,0.00
2013-12-9,22,7,-4,10,-8,-20,81,50,44,28.94,28.70,23,6,23,0.00
2013-12-10,20,8,-5,7,-9,-21,67,45,44,28.91,28.61,25,5,25,0.00
2013-12-11,8,8,-5,-9,-10,-21,44,44,44,29.26,28.91,5,0,5,0.00
2013-12-12,25,12,-4,7,-4,-21,67,49,41,29.24,28.94,14,4,14,0.00
2013-12-13,25,18,13,11,6,0,74,60,46,29.03,28.88,14,6,14,0.00
2013-12-14,25,18,12,13,9,1,79,68,55,29.03,28.73,15,5,15,0.00
2013-12-15,14,6,-3,5,-2,-10,68,68,68,28.94,28.73,18,8,18,0.00
2013-12-16,15,7,-8,14,-3,-16,92,65,44,28.94,28.76,14,3,14,0.00
2013-12-17,38,25,14,24,15,2,93,69,40,28.85,28.64,23,8,23,0.00
2013-12-18,38,23,0,25,9,-11,81,56,40,28.88,28.47,34,4,35,0.00
2013-12-19,30,25,18,26,18,13,98,77,58,28.79,28.53,18,6,18,0.00
2013-12-20,23,21,18,21,18,15,95,88,78,28.76,28.61,16,4,16,0.00
2013-12-21,27,24,22,25,22,19,98,92,80,28.70,28.58,10,4,11,0.00
2013-12-22,29,24,19,22,19,16,92,83,64,28.91,28.56,13,4,13,0.00
2013-12-23,22,8,-6,20,-4,-21,91,60,44,29.24,28.88,12,6,12,0.00
2013-12-24,14,1,-19,3,-13,-33,60,50,46,29.32,29.00,17,4,17,0.00
2013-12-25,25,17,8,20,8,-4,89,67,56,29.00,28.82,14,4,14,0.00
2013-12-26,30,20,11,17,11,4,82,70,51,28.97,28.88,8,2,9,0.00
2013-12-27,39,25,4,29,17,0,83,71,53,29.03,28.73,17,3,17,0.06
2013-12-28,47,34,14,33,22,11,93,65,42,28.82,28.50,10,3,10,0.15
2013-12-29,38,14,-9,32,4,-21,96,65,53,29.06,28.50,23,11,23,0.03
2013-12-30,8,-3,-18,-5,-15,-29,55,55,55,29.12,28.94,8,2,8,0.00
2013-12-31,9,2,-5,-4,-10,-18,55,55,55,29.18,28.94,10,4,10,0.00
2014-1-1,10,2,-6,-3,-10,-18,55,55,55,29.24,29.12,10,5,10,0.00
2014-1-2,14,3,-15,0,-10,-26,55,55,55,29.24,29.09,15,5,15,0.00